Latest Coastal Weather Observations for Devonport Airport

IDT60701

Issued at 11:02 pm EST Monday 8 August 2022 (issued every 10 minutes, with the page automatically refreshed every 10 minutes)

About coastal observations | Map of coastal stations | Coastal observations for TAS | Marine services | Other Formats
Station Details ID: 091126 Name: DEVONPORT AIRPORT Lat: -41.17 Lon: 146.43 Height: 8.0 m
Data from the previous 72 hours. | See also: Recent months at Devonport Airport
Date/Time
EST
Wind Sea
Height
m
Swell Vis
km
Cloud Weather Temp
°C
Press
MSL
hPa
Rain since
9am
mm
Dir  Spd
kts
Gust
kts
Height
m
Period
s
Dir
08/11:00pm SSE 7 8 - - - - 10 Clear - 4.9 1026.8 0.0
08/10:30pm SSE 7 8 - - - - 10 - - 4.7 1026.9 0.0
08/10:00pm SSE 7 9 - - - - 10 - - 4.7 1026.7 0.0
08/09:30pm S 7 8 - - - - 10 - - 4.4 1026.8 0.0
08/09:00pm SSE 6 7 - - - - 10 - - 4.9 1026.7 0.0
08/08:30pm SSE 7 9 - - - - 10 - - 5.2 1026.6 0.0
08/08:00pm SSE 6 7 - - - - 10 - - 4.6 1026.4 0.0
08/07:30pm S 4 5 - - - - 10 - - 5.2 1026.2 0.0
08/07:00pm S 5 5 - - - - 10 - - 5.4 1026.2 0.0
08/06:30pm S 4 4 - - - - 10 - - 6.6 1026.2 0.0
08/06:00pm W 3 4 - - - - 10 - - 8.2 1025.9 0.0
08/05:30pm NW 5 5 - - - - 10 - - 9.2 1025.7 0.0
08/05:00pm N 6 7 - - - - 10 - - 10.2 1025.4 0.0
08/04:30pm N 8 10 - - - - 10 - - 10.8 1025.0 0.0
08/04:00pm N 8 9 - - - - 10 - - 11.2 1025.1 0.0
08/03:30pm NNE 6 7 - - - - 10 - - 11.3 1025.4 0.0
08/03:00pm N 5 7 - - - - 10 - - 11.6 1025.2 0.0
08/02:30pm N 5 7 - - - - 10 - - 11.7 1025.3 0.0
08/02:00pm N 5 6 - - - - 10 - - 11.8 1025.3 0.0
08/01:30pm N 5 6 - - - - 10 - - 11.7 1025.6 0.0
08/01:00pm N 5 6 - - - - 10 - - 11.8 1025.7 0.0
08/12:30pm NNE 5 7 - - - - 10 - - 11.6 1026.1 0.0
08/12:00pm N 5 7 - - - - 10 - - 11.4 1026.4 0.0
08/11:30am WSW 4 5 - - - - 10 - - 11.7 1026.5 0.0
08/11:00am S 6 8 - - - - 10 - - 10.2 1026.5 0.0
08/10:30am S 8 11 - - - - 10 - - 9.2 1026.5 0.0
08/10:00am S 9 11 - - - - 10 - - 8.3 1026.4 0.0
08/09:30am S 11 13 - - - - 10 - - 7.2 1026.5 0.0
08/09:00am S 11 13 - - - - 10 - - 6.4 1026.4 5.0
08/08:30am SSE 11 13 - - - - 10 - - 5.4 1026.2 5.0
08/08:00am S 9 11 - - - - 10 - - 4.4 1026.1 5.0
08/07:30am SSE 11 13 - - - - 10 - - 4.1 1025.9 5.0
08/07:00am SSE 11 13 - - - - 10 - - 3.9 1025.7 5.0
08/06:30am SSE 11 13 - - - - 10 - - 4.1 1025.4 5.0
08/06:00am SSE 11 12 - - - - 10 - - 4.3 1025.2 5.0
08/05:30am SSE 9 11 - - - - 10 Partly cloudy - 4.6 1025.1 5.0
08/05:00am S 9 10 - - - - 10 Cloudy - 5.2 1024.9 5.0
08/04:30am SSE 10 11 - - - - 10 Cloudy - 5.6 1024.7 5.0
08/04:00am SSE 10 11 - - - - 10 Cloudy - 5.8 1024.6 5.0
08/03:30am SSE 8 10 - - - - 10 Cloudy - 5.5 1024.6 5.0
08/03:00am SSE 9 11 - - - - 10 Cloudy - 5.9 1024.6 5.0
08/02:30am S 9 11 - - - - 10 Partly cloudy - 5.2 1024.7 5.0
08/02:00am SSE 10 11 - - - - 10 Partly cloudy - 5.7 1024.7 5.0
08/01:30am SSE 9 10 - - - - 10 Cloudy - 6.2 1024.6 4.6
08/01:00am S 9 11 - - - - 10 Cloudy - 6.5 1024.6 4.2
08/12:30am SSE 9 11 - - - - 10 Cloudy - 6.5 1024.7 3.6
08/12:00am SSE 9 10 - - - - 10 Mostly cloudy Rain 6.5 1024.8 3.0
 
Date/Time
EST
Wind Sea
Height
m
Swell Vis
km
Cloud Weather Temp
°C
Press
MSL
hPa
Rain since
9am
mm
Dir  Spd
kts
Gust
kts
Height
m
Period
s
Dir
07/11:30pm SSE 8 10 - - - - 10 Partly cloudy - 6.5 1024.7 2.6
07/11:00pm S 8 9 - - - - 10 Cloudy - 6.9 1024.6 2.0
07/10:30pm SSE 7 10 - - - - 10 Partly cloudy - 7.2 1024.6 1.4
07/10:00pm SSE 8 12 - - - - 10 Partly cloudy - 7.3 1024.5 1.0
07/09:38pm S 7 10 - - - - 10 Partly cloudy - 7.1 1024.4 0.8
07/09:30pm S 7 9 - - - - 7 Partly cloudy - 7.2 1024.3 0.8
07/09:12pm ESE 6 10 - - - - 6 Partly cloudy - 7.9 1024.4 0.6
07/09:00pm SE 8 11 - - - - 10 Cloudy Showers 7.6 1024.2 0.4
07/08:30pm S 5 7 - - - - 10 Partly cloudy - 8.0 1023.7 0.2
07/08:00pm NNW 8 9 - - - - 8 Partly cloudy - 8.4 1023.5 0.2
07/07:42pm E 6 8 - - - - 6 Partly cloudy - 8.2 1023.6 0.0
07/07:30pm SSE 5 6 - - - - 10 Partly cloudy - 7.7 1023.5 0.0
07/07:00pm S 4 5 - - - - 10 Partly cloudy - 7.5 1023.0 0.0
07/06:30pm S 4 5 - - - - 10 Partly cloudy - 8.1 1022.6 0.0
07/06:00pm CALM 0 0 - - - - 10 Mostly cloudy - 9.4 1022.3 0.0
07/05:30pm W 4 4 - - - - 10 Partly cloudy - 10.1 1022.0 0.0
07/05:00pm WNW 5 6 - - - - 10 Partly cloudy - 11.0 1021.8 0.0
07/04:30pm NW 5 6 - - - - 10 - - 11.4 1021.5 0.0
07/04:00pm NNW 6 7 - - - - 10 - - 11.5 1021.2 0.0
07/03:30pm NNW 6 7 - - - - 10 - - 11.5 1021.0 0.0
07/03:00pm NNW 6 8 - - - - 10 Mostly clear - 11.7 1020.8 0.0
07/02:30pm NNW 5 7 - - - - 10 Partly cloudy - 12.3 1020.6 0.0
07/02:00pm SE 3 6 - - - - 10 - - 12.7 1020.6 0.0
07/01:30pm E 5 8 - - - - 10 - - 12.0 1020.6 0.0
07/01:00pm SE 4 7 - - - - 10 - - 11.6 1020.7 0.0
07/12:30pm SSE 9 12 - - - - 10 - - 11.2 1020.8 0.0
07/12:00pm SE 10 13 - - - - 10 - - 11.2 1021.0 0.0
07/11:30am SE 12 16 - - - - 10 - - 10.7 1021.2 0.0
07/11:00am SE 12 15 - - - - 10 - - 10.6 1021.1 0.0
07/10:30am SE 13 17 - - - - 10 - - 9.7 1020.9 0.0
07/10:00am SSE 12 15 - - - - 10 - - 8.5 1020.7 0.0
07/09:30am SSE 13 15 - - - - 10 - - 7.1 1020.4 0.0
07/09:00am S 13 17 - - - - 10 - - 6.1 1020.2 0.0
07/08:30am SSE 12 15 - - - - 10 - - 5.1 1019.9 0.0
07/08:00am SSE 11 13 - - - - 10 - - 4.1 1019.5 0.0
07/07:30am SSE 11 14 - - - - 10 - - 3.3 1019.1 0.0
07/07:00am S 11 14 - - - - 10 - - 3.3 1018.7 0.0
07/06:30am S 11 13 - - - - 10 - - 3.5 1018.2 0.0
07/06:00am SSE 12 14 - - - - 10 - - 3.6 1017.7 0.0
07/05:30am S 10 12 - - - - 10 - - 3.7 1017.4 0.0
07/05:00am SSE 9 11 - - - - 10 - - 3.8 1017.1 0.0
07/04:30am SSE 11 13 - - - - 10 Partly cloudy - 4.1 1016.6 0.0
07/04:00am SSE 14 17 - - - - 10 Partly cloudy - 4.9 1016.2 0.0
07/03:30am SSE 15 19 - - - - 10 Partly cloudy - 5.4 1016.0 0.0
07/03:00am SSE 11 15 - - - - 10 Cloudy - 5.6 1016.0 0.0
07/02:30am SSE 13 17 - - - - 10 Partly cloudy - 5.8 1015.7 0.0
07/02:00am SSE 16 21 - - - - 10 Cloudy - 6.3 1015.6 0.0
07/01:30am SSE 13 17 - - - - 10 Cloudy - 6.7 1015.3 0.0
07/01:00am SSE 14 18 - - - - 10 Cloudy - 6.4 1014.9 0.0
07/12:30am SSE 14 17 - - - - 10 Cloudy - 6.5 1014.8 0.0
07/12:00am SSE 16 20 - - - - 10 Cloudy - 6.7 1014.5 0.0
 
Date/Time
EST
Wind Sea
Height
m
Swell Vis
km
Cloud Weather Temp
°C
Press
MSL
hPa
Rain since
9am
mm
Dir  Spd
kts
Gust
kts
Height
m
Period
s
Dir
06/11:30pm SSE 16 21 - - - - 10 Cloudy - 7.3 1014.2 0.0
06/11:00pm SSE 16 22 - - - - 10 Partly cloudy - 7.3 1014.0 0.0
06/10:30pm SSE 14 18 - - - - 10 Cloudy - 7.0 1013.7 0.0
06/10:00pm SSE 14 17 - - - - 10 Cloudy - 7.1 1013.4 0.0
06/09:30pm SSE 14 17 - - - - 10 Partly cloudy - 6.9 1013.0 0.0
06/09:00pm SE 11 14 - - - - 10 Partly cloudy - 6.8 1012.8 0.0
06/08:30pm SSE 11 14 - - - - 10 Partly cloudy - 7.6 1012.4 0.0
06/08:00pm SSE 7 10 - - - - 10 Partly cloudy - 7.5 1012.1 0.0
06/07:30pm SSE 7 10 - - - - 10 Cloudy - 7.8 1011.8 0.0
06/07:00pm SE 10 13 - - - - 10 Cloudy - 8.8 1011.1 0.0
06/06:30pm SE 11 17 - - - - 10 Cloudy - 9.5 1010.5 0.0
06/06:00pm SSE 7 9 - - - - 10 Cloudy - 9.9 1010.0 0.0
06/05:30pm SE 9 12 - - - - 10 Partly cloudy - 10.7 1009.4 0.0
06/05:00pm ESE 8 11 - - - - 10 Cloudy - 11.4 1008.7 0.0
06/04:30pm ESE 9 13 - - - - 10 Cloudy - 11.9 1008.1 0.0
06/04:00pm ESE 10 15 - - - - 10 Cloudy - 12.4 1007.7 0.0
06/03:30pm SE 10 15 - - - - 10 Cloudy - 13.3 1007.3 0.0
06/03:00pm ESE 9 14 - - - - 10 - - 13.6 1006.9 0.0
06/02:30pm ESE 10 14 - - - - 10 Partly cloudy - 13.5 1006.5 0.0
06/02:00pm ESE 10 14 - - - - 10 Partly cloudy - 13.5 1006.3 0.0
06/01:30pm ESE 9 13 - - - - 10 - - 13.4 1006.1 0.0
06/01:00pm ESE 9 13 - - - - 10 Partly cloudy - 13.0 1006.1 0.0
06/12:30pm ESE 9 12 - - - - 10 Partly cloudy - 12.2 1006.0 0.0
06/12:00pm ESE 11 14 - - - - 10 Cloudy - 12.0 1006.0 0.0
06/11:30am SE 9 11 - - - - 10 Cloudy - 11.7 1006.1 0.0
06/11:00am SE 12 16 - - - - 10 Cloudy - 11.6 1005.8 0.0
06/10:30am SE 12 16 - - - - 10 Cloudy - 11.6 1005.5 0.0
06/10:00am SSE 11 13 - - - - 10 Cloudy - 10.1 1005.0 0.0
06/09:30am SSE 12 15 - - - - 10 - - 8.6 1004.6 0.0
06/09:00am SSE 11 13 - - - - 10 - - 7.1 1004.2 2.2
06/08:30am S 8 10 - - - - 10 Cloudy - 6.5 1004.1 2.2
06/08:00am SSE 7 9 - - - - 10 Partly cloudy - 5.0 1003.7 2.2
06/07:30am S 6 9 - - - - 10 - - 4.2 1003.1 2.2
06/07:00am SSW 5 7 - - - - 10 - - 3.7 1002.6 2.2
06/06:30am S 9 11 - - - - 10 - - 4.3 1002.1 2.2
06/06:00am S 7 8 - - - - 10 - - 4.4 1001.5 2.2
06/05:30am S 6 8 - - - - 10 Partly cloudy - 5.3 1001.1 2.2
06/05:00am SW 5 6 - - - - 10 Partly cloudy - 6.3 1000.8 2.2
06/04:30am S 1 5 - - - - 10 - - 6.7 1000.3 2.2
06/04:00am W 8 10 - - - - 10 - - 5.2 1000.1 2.2
06/03:30am SSW 5 7 - - - - 10 - - 5.6 999.9 2.2
06/03:00am W 7 10 - - - - 10 - - 6.1 999.6 2.2
06/02:30am W 7 9 - - - - 10 - - 5.9 999.6 2.2
06/02:00am WSW 9 10 - - - - 10 - - 6.4 999.5 2.2
06/01:30am W 9 10 - - - - 10 - - 7.2 999.4 2.2
06/01:00am W 7 8 - - - - 10 - - 7.1 999.2 2.2
06/12:30am SW 4 6 - - - - 10 - - 7.0 999.1 2.2
06/12:00am WSW 8 9 - - - - 10 Partly cloudy - 7.0 999.0 2.2
 
Date/Time
EST
Wind Sea
Height
m
Swell Vis
km
Cloud Weather Temp
°C
Press
MSL
hPa
Rain since
9am
mm
Dir  Spd
kts
Gust
kts
Height
m
Period
s
Dir
05/11:30pm W 10 12 - - - - 10 - - 8.3 998.7 2.2

Other formats

Comma delimited format used in spreadsheet applications
http://www.bom.gov.au/fwo/IDT60701/IDT60701.95960.axf

JavaScript Object Notation format (JSON) in row-major order
http://www.bom.gov.au/fwo/IDT60701/IDT60701.95960.json

Data quality

Most of these data are generated automatically and are frequently updated. Quality checks on data are not normally performed. It is possible for incorrect values to appear. Refer to information at About Latest Weather Observations and please check the disclaimer before using these data.